Time;durP1;ratioP1;P1;durP2;ratioP2;P2;SDS_P1;SDS_P2;PMS_P1;PMS_P2;Temp;Humidity;BMP_temperature;BMP_pressure;BME280_temperature;BME280_humidity;BME280_pressure;Samples;Min_cycle;Max_cycle;Signal;HPM_P1;HPM_P2
2021/05/04 00:01:14;;;;;;;0.95;0.85;;;12.20;94.70;;;;;;5093639;28;20198;-76
2021/05/04 00:03:41;;;;;;;0.70;0.70;;;12.20;94.70;;;;;;5094695;28;20241;-74
2021/05/04 00:06:07;;;;;;;0.60;0.60;;;12.30;94.90;;;;;;5094228;28;20200;-76
2021/05/04 00:08:33;;;;;;;0.50;0.47;;;12.20;94.60;;;;;;5094673;28;20200;-77
2021/05/04 00:11:00;;;;;;;0.50;0.40;;;12.20;95.00;;;;;;5094246;28;20227;-76
2021/05/04 00:13:26;;;;;;;2.17;2.08;;;12.20;94.70;;;;;;5089834;28;20221;-76
2021/05/04 00:15:52;;;;;;;0.70;0.70;;;12.20;94.90;;;;;;5092452;28;20195;-77
2021/05/04 00:18:19;;;;;;;0.95;0.70;;;12.20;94.90;;;;;;5094481;28;20204;-76
2021/05/04 00:20:46;;;;;;;1.23;1.00;;;12.20;94.80;;;;;;5094045;28;20562;-77
2021/05/04 00:23:12;;;;;;;2.85;2.65;;;12.20;94.80;;;;;;5093532;28;20659;-76
2021/05/04 00:25:38;;;;;;;0.50;0.40;;;12.20;95.20;;;;;;5094320;28;20204;-77
2021/05/04 00:28:05;;;;;;;0.63;0.60;;;12.10;95.10;;;;;;5094120;28;20543;-77
2021/05/04 00:30:31;;;;;;;1.20;1.10;;;12.20;95.00;;;;;;5093991;28;20223;-76
2021/05/04 00:32:57;;;;;;;0.77;0.77;;;12.20;95.00;;;;;;5093098;28;20665;-77
2021/05/04 00:35:25;;;;;;;0.88;0.65;;;12.20;94.90;;;;;;5093970;28;20567;-76
2021/05/04 00:37:51;;;;;;;1.15;1.05;;;12.20;94.90;;;;;;5093454;28;20203;-77
2021/05/04 00:40:17;;;;;;;1.40;1.30;;;12.20;94.90;;;;;;5093977;28;20204;-76
2021/05/04 00:42:43;;;;;;;1.02;1.02;;;12.20;94.70;;;;;;5093594;28;20192;-77
2021/05/04 00:45:10;;;;;;;1.48;1.38;;;12.20;94.90;;;;;;5087686;28;20270;-77
2021/05/04 00:47:36;;;;;;;3.42;1.75;;;12.20;94.90;;;;;;5093408;28;20193;-77
2021/05/04 00:50:03;;;;;;;0.60;0.60;;;12.20;95.10;;;;;;5093528;28;20211;-77
2021/05/04 00:52:30;;;;;;;1.63;0.90;;;12.20;95.10;;;;;;5093059;28;20659;-79
2021/05/04 00:54:57;;;;;;;1.35;0.93;;;12.20;95.20;;;;;;5093594;28;20241;-76
2021/05/04 00:57:24;;;;;;;0.80;0.43;;;12.20;95.20;;;;;;5092967;28;20666;-77
2021/05/04 00:59:51;;;;;;;0.60;0.60;;;12.10;95.30;;;;;;5093606;28;20199;-77
2021/05/04 01:02:19;;;;;;;1.08;1.08;;;12.20;95.20;;;;;;5092953;28;20252;-73
2021/05/04 01:04:46;;;;;;;0.98;0.65;;;12.10;95.50;;;;;;5093076;28;20212;-77
2021/05/04 01:07:12;;;;;;;1.15;1.10;;;12.20;95.50;;;;;;5092831;28;20197;-77
2021/05/04 01:09:40;;;;;;;0.98;0.70;;;12.20;95.60;;;;;;5093500;28;20214;-77
2021/05/04 01:12:07;;;;;;;0.90;0.50;;;12.20;95.70;;;;;;5092932;28;20298;-77
2021/05/04 01:14:33;;;;;;;0.70;0.60;;;12.10;95.80;;;;;;5086515;28;20262;-77
2021/05/04 01:17:01;;;;;;;1.05;0.70;;;12.20;95.60;;;;;;5092289;28;20196;-76
2021/05/04 01:19:28;;;;;;;0.77;0.77;;;12.20;95.70;;;;;;5092898;28;20195;-76
2021/05/04 01:21:55;;;;;;;1.02;0.82;;;12.20;95.80;;;;;;5092652;28;20701;-77
2021/05/04 01:24:21;;;;;;;6.88;1.38;;;12.20;96.20;;;;;;5092321;28;20215;-77
2021/05/04 01:26:48;;;;;;;0.60;0.60;;;12.20;96.40;;;;;;5092835;28;20317;-77
2021/05/04 01:29:15;;;;;;;1.42;1.27;;;12.20;95.90;;;;;;5092513;28;20598;-74
2021/05/04 01:31:42;;;;;;;1.45;1.35;;;12.30;96.00;;;;;;5092151;28;20203;-77
2021/05/04 01:34:09;;;;;;;1.50;0.65;;;12.30;96.00;;;;;;5092450;28;20220;-76
2021/05/04 01:36:36;;;;;;;3.00;1.25;;;12.30;95.90;;;;;;5092927;28;20218;-76
2021/05/04 01:39:06;;;;;;;0.73;0.70;;;12.30;96.00;;;;;;5092661;28;20193;-76
2021/05/04 01:41:33;;;;;;;3.38;1.38;;;12.30;96.30;;;;;;5092574;28;20200;-77
2021/05/04 01:43:59;;;;;;;0.65;0.57;;;12.30;96.00;;;;;;5086286;28;20213;-76
2021/05/04 01:46:25;;;;;;;0.50;0.40;;;12.30;96.30;;;;;;5092504;28;20197;-77
2021/05/04 01:48:52;;;;;;;1.70;1.50;;;12.30;96.10;;;;;;5092103;28;20196;-77
2021/05/04 01:51:19;;;;;;;2.42;2.25;;;12.30;96.10;;;;;;5092203;28;20210;-75
2021/05/04 01:53:45;;;;;;;2.90;0.82;;;12.30;96.30;;;;;;5092447;28;20720;-76
2021/05/04 01:56:12;;;;;;;1.80;1.30;;;12.40;95.90;;;;;;5092107;28;20204;-76
2021/05/04 01:58:38;;;;;;;0.80;0.70;;;12.50;93.80;;;;;;5091975;28;20571;-76
2021/05/04 02:01:04;;;;;;;0.60;0.50;;;12.50;91.20;;;;;;5091996;28;20189;-76
2021/05/04 02:03:31;;;;;;;1.60;0.70;;;12.60;90.30;;;;;;5092661;28;20214;-76
2021/05/04 02:05:57;;;;;;;4.78;0.73;;;12.60;90.90;;;;;;5094608;28;20665;-76
2021/05/04 02:08:23;;;;;;;0.80;0.80;;;12.70;92.10;;;;;;5096435;28;20203;-77
2021/05/04 02:10:49;;;;;;;0.75;0.73;;;12.60;95.10;;;;;;5092419;28;20211;-77
2021/05/04 02:13:16;;;;;;;7.80;1.08;;;12.30;99.90;;;;;;5088229;28;20204;-76
2021/05/04 02:15:43;;;;;;;0.50;0.50;;;12.00;99.80;;;;;;5081168;28;20202;-77
2021/05/04 02:18:09;;;;;;;1.88;1.77;;;11.90;99.90;;;;;;5092127;28;20210;-76
2021/05/04 02:20:35;;;;;;;1.15;1.13;;;11.80;99.90;;;;;;5092167;28;20196;-76
2021/05/04 02:23:01;;;;;;;0.77;0.77;;;11.70;99.90;;;;;;5091617;28;20190;-76
2021/05/04 02:25:28;;;;;;;0.93;0.93;;;11.50;99.90;;;;;;5090756;28;20212;-77
2021/05/04 02:27:54;;;;;;;0.60;0.60;;;11.20;99.90;;;;;;5092199;28;20196;-76
2021/05/04 02:30:22;;;;;;;0.77;0.77;;;10.90;99.90;;;;;;5091768;28;20226;-76
2021/05/04 02:32:48;;;;;;;0.50;0.40;;;10.60;99.90;;;;;;5092172;28;20199;-77
2021/05/04 02:35:15;;;;;;;1.10;0.73;;;10.40;99.90;;;;;;5091248;28;20654;-75
2021/05/04 02:37:41;;;;;;;0.60;0.60;;;10.20;99.90;;;;;;5091657;28;20198;-76
2021/05/04 02:40:09;;;;;;;0.50;0.40;;;9.90;99.90;;;;;;5092428;28;20197;-76
2021/05/04 02:42:35;;;;;;;6.38;0.80;;;9.70;99.90;;;;;;5091692;28;20189;-76
2021/05/04 02:45:01;;;;;;;0.70;0.70;;;9.40;99.90;;;;;;5085978;28;20582;-77
2021/05/04 02:47:28;;;;;;;1.67;0.98;;;9.20;99.90;;;;;;5091364;28;20193;-77
2021/05/04 02:49:55;;;;;;;0.65;0.65;;;9.00;99.90;;;;;;5091639;28;20210;-76
2021/05/04 02:52:21;;;;;;;0.70;0.63;;;8.80;99.90;;;;;;5091648;28;20200;-76
2021/05/04 02:54:47;;;;;;;0.80;0.80;;;8.70;99.90;;;;;;5092436;28;20217;-75
2021/05/04 02:57:13;;;;;;;1.15;0.80;;;8.50;99.90;;;;;;5092047;28;20200;-74
2021/05/04 02:59:40;;;;;;;1.48;1.23;;;8.40;99.90;;;;;;5092454;28;20213;-76
2021/05/04 03:02:06;;;;;;;0.60;0.60;;;8.30;99.90;;;;;;5091008;28;20732;-77
2021/05/04 03:04:33;;;;;;;0.60;0.50;;;8.20;99.90;;;;;;5092097;28;20216;-76
2021/05/04 03:06:59;;;;;;;0.50;0.50;;;8.20;99.90;;;;;;5091818;28;20204;-76
2021/05/04 03:09:25;;;;;;;0.60;0.50;;;8.10;99.90;;;;;;5093072;28;20246;-77
2021/05/04 03:11:52;;;;;;;1.10;0.95;;;8.10;99.90;;;;;;5091474;28;20193;-76
2021/05/04 03:14:18;;;;;;;0.52;0.50;;;8.10;99.90;;;;;;5086115;28;20221;-76
2021/05/04 03:16:44;;;;;;;0.82;0.82;;;8.10;99.90;;;;;;5091499;28;20323;-76
2021/05/04 03:19:10;;;;;;;1.88;1.30;;;8.10;99.90;;;;;;5092176;28;20200;-76
2021/05/04 03:21:37;;;;;;;0.60;0.50;;;8.10;99.90;;;;;;5091963;28;20550;-76
2021/05/04 03:24:05;;;;;;;1.35;0.90;;;8.10;99.90;;;;;;5091317;28;20213;-77
2021/05/04 03:26:31;;;;;;;1.13;0.63;;;8.10;99.90;;;;;;5091490;28;20204;-77
2021/05/04 03:28:57;;;;;;;4.00;1.15;;;8.00;99.90;;;;;;5091928;28;20208;-75
2021/05/04 03:31:23;;;;;;;2.92;2.83;;;8.00;99.90;;;;;;5091639;28;20229;-77
2021/05/04 03:33:50;;;;;;;2.50;1.15;;;8.00;99.90;;;;;;5091494;28;20564;-75
2021/05/04 03:36:16;;;;;;;1.55;1.25;;;8.00;99.90;;;;;;5092584;28;20566;-76
2021/05/04 03:38:43;;;;;;;0.60;0.60;;;8.00;99.90;;;;;;5095363;28;20208;-78
2021/05/04 03:41:10;;;;;;;0.73;0.73;;;7.90;99.90;;;;;;5095088;28;20460;-76
2021/05/04 03:43:36;;;;;;;2.05;1.70;;;7.90;99.90;;;;;;5089313;28;20218;-75
2021/05/04 03:46:02;;;;;;;0.50;0.50;;;7.80;99.90;;;;;;5094788;28;20204;-76
2021/05/04 03:48:29;;;;;;;0.50;0.40;;;7.80;99.90;;;;;;5094381;28;20193;-75
2021/05/04 03:50:55;;;;;;;1.75;1.60;;;7.80;99.90;;;;;;5095221;28;20217;-75
2021/05/04 03:53:21;;;;;;;0.60;0.50;;;7.70;99.90;;;;;;5094336;28;20204;-75
2021/05/04 03:55:49;;;;;;;2.20;1.35;;;7.70;99.90;;;;;;5094839;28;20579;-77
2021/05/04 03:58:16;;;;;;;1.08;0.73;;;7.60;99.90;;;;;;5094271;28;20264;-75
2021/05/04 04:00:42;;;;;;;1.77;1.10;;;7.60;99.90;;;;;;5094590;28;20243;-76
2021/05/04 04:03:08;;;;;;;0.80;0.80;;;7.60;99.90;;;;;;5093973;28;20196;-75
2021/05/04 04:05:35;;;;;;;1.58;0.63;;;7.60;99.90;;;;;;5094899;28;20209;-76
2021/05/04 04:08:01;;;;;;;2.25;1.20;;;7.60;99.90;;;;;;5094461;28;20236;-75
2021/05/04 04:10:27;;;;;;;0.60;0.50;;;7.60;99.90;;;;;;5094567;28;20213;-76
2021/05/04 04:12:55;;;;;;;4.15;0.90;;;7.70;99.90;;;;;;5094197;28;20223;-76
2021/05/04 04:15:21;;;;;;;0.90;0.90;;;7.80;99.90;;;;;;5088791;28;20209;-77
2021/05/04 04:17:48;;;;;;;1.00;0.90;;;7.80;99.90;;;;;;5094606;28;20620;-75
2021/05/04 04:20:14;;;;;;;1.17;1.10;;;7.90;99.90;;;;;;5094435;28;20193;-78
2021/05/04 04:22:40;;;;;;;1.13;0.80;;;7.90;99.90;;;;;;5094311;28;20198;-77
2021/05/04 04:25:08;;;;;;;0.50;0.40;;;7.90;99.90;;;;;;5094297;28;20213;-77
2021/05/04 04:27:34;;;;;;;1.35;1.00;;;8.00;99.90;;;;;;5094675;28;20193;-76
2021/05/04 04:30:02;;;;;;;0.50;0.40;;;8.10;99.90;;;;;;5093913;28;20725;-77
2021/05/04 04:32:28;;;;;;;0.80;0.80;;;8.10;99.90;;;;;;5093891;28;20563;-77
2021/05/04 04:34:54;;;;;;;3.47;1.02;;;8.10;99.90;;;;;;5093985;28;20220;-78
2021/05/04 04:37:21;;;;;;;0.73;0.63;;;8.20;99.90;;;;;;5093866;28;20197;-77
2021/05/04 04:39:47;;;;;;;1.17;1.08;;;8.30;99.90;;;;;;5093808;28;20197;-77
2021/05/04 04:42:13;;;;;;;1.23;1.08;;;8.30;99.90;;;;;;5093482;28;20243;-77
2021/05/04 04:44:39;;;;;;;3.03;1.40;;;8.40;99.90;;;;;;5087571;28;20217;-77
2021/05/04 04:47:07;;;;;;;0.70;0.70;;;8.40;99.90;;;;;;5094009;28;20189;-76
2021/05/04 04:49:34;;;;;;;0.52;0.47;;;8.50;99.90;;;;;;5094338;28;20193;-77
2021/05/04 04:52:00;;;;;;;1.10;1.00;;;8.50;99.90;;;;;;5093873;28;20270;-76
2021/05/04 04:54:26;;;;;;;1.10;1.00;;;8.60;99.90;;;;;;5093926;28;20213;-77
2021/05/04 04:56:53;;;;;;;0.50;0.50;;;8.60;99.90;;;;;;5093512;28;20662;-75
2021/05/04 04:59:19;;;;;;;1.13;0.95;;;8.60;99.90;;;;;;5093945;28;20559;-77
2021/05/04 05:01:45;;;;;;;0.70;0.60;;;8.70;99.90;;;;;;5092660;28;20214;-76
2021/05/04 05:04:12;;;;;;;1.80;1.20;;;8.70;99.90;;;;;;5093449;28;20219;-77
2021/05/04 05:06:38;;;;;;;1.15;0.88;;;8.70;99.90;;;;;;5093734;28;20194;-78
2021/05/04 05:09:08;;;;;;;0.60;0.50;;;8.70;99.90;;;;;;5093220;28;20189;-77
2021/05/04 05:11:34;;;;;;;0.93;0.68;;;8.80;99.90;;;;;;5092439;28;20308;-77
2021/05/04 05:14:01;;;;;;;0.60;0.60;;;8.80;99.90;;;;;;5088183;28;20250;-77
2021/05/04 05:16:27;;;;;;;1.48;1.35;;;8.90;99.90;;;;;;5093378;28;20190;-78
2021/05/04 05:18:53;;;;;;;1.35;1.02;;;8.90;99.90;;;;;;5092785;28;20195;-77
2021/05/04 05:21:21;;;;;;;1.17;0.73;;;8.90;99.90;;;;;;5092961;28;20200;-75
2021/05/04 05:23:47;;;;;;;0.60;0.60;;;9.00;99.90;;;;;;5093205;28;20217;-76
2021/05/04 05:26:15;;;;;;;2.35;1.60;;;9.00;99.90;;;;;;5092988;28;20604;-77
2021/05/04 05:28:41;;;;;;;0.95;0.75;;;9.00;99.90;;;;;;5093217;28;20288;-76
2021/05/04 05:31:08;;;;;;;0.98;0.93;;;9.10;99.90;;;;;;5092956;28;20214;-76
2021/05/04 05:33:34;;;;;;;1.05;1.05;;;9.10;99.90;;;;;;5094423;28;20259;-76
2021/05/04 05:36:01;;;;;;;0.95;0.90;;;9.10;99.90;;;;;;5093094;28;20193;-77
2021/05/04 05:38:28;;;;;;;1.33;1.15;;;9.00;99.90;;;;;;5093034;28;20194;-76
2021/05/04 05:40:55;;;;;;;0.50;0.50;;;8.90;99.90;;;;;;5092723;28;20191;-76
2021/05/04 05:43:22;;;;;;;1.20;1.10;;;8.80;99.90;;;;;;5089003;28;20247;-76
2021/05/04 05:45:48;;;;;;;0.80;0.80;;;8.80;99.90;;;;;;5090655;28;20193;-76
2021/05/04 05:48:15;;;;;;;0.75;0.75;;;8.70;99.90;;;;;;5092087;28;20194;-73
2021/05/04 05:50:41;;;;;;;1.13;0.80;;;8.50;99.90;;;;;;5092372;28;20217;-76
2021/05/04 05:53:07;;;;;;;1.13;1.02;;;8.50;99.90;;;;;;5092268;28;20202;-75
2021/05/04 05:55:34;;;;;;;0.60;0.50;;;8.40;99.90;;;;;;5092135;28;20197;-78
2021/05/04 05:58:01;;;;;;;0.70;0.70;;;8.40;99.90;;;;;;5091782;28;20204;-77
2021/05/04 06:00:27;;;;;;;0.50;0.50;;;8.40;99.90;;;;;;5091922;28;20548;-77
2021/05/04 06:02:53;;;;;;;3.15;1.17;;;8.50;99.90;;;;;;5091202;28;20197;-76
2021/05/04 06:05:20;;;;;;;2.15;0.50;;;8.60;99.90;;;;;;5091775;28;20217;-76
2021/05/04 06:07:46;;;;;;;0.63;0.63;;;8.70;99.90;;;;;;5092129;28;20666;-76
2021/05/04 06:10:13;;;;;;;0.80;0.60;;;8.80;99.90;;;;;;5091730;28;20210;-77
2021/05/04 06:12:40;;;;;;;0.50;0.50;;;8.80;99.90;;;;;;5091156;28;20276;-77
2021/05/04 06:15:07;;;;;;;0.70;0.70;;;8.90;99.90;;;;;;5086086;28;20266;-77
2021/05/04 06:17:33;;;;;;;0.63;0.63;;;9.00;99.90;;;;;;5091658;28;20192;-77
2021/05/04 06:20:00;;;;;;;1.70;0.90;;;9.10;99.90;;;;;;5092100;28;20575;-77
2021/05/04 06:22:28;;;;;;;1.15;0.70;;;9.20;99.90;;;;;;5088295;28;20197;-77
2021/05/04 06:24:55;;;;;;;1.55;0.80;;;9.20;99.90;;;;;;5080594;28;20210;-77
2021/05/04 06:27:28;;;;;;;1.02;1.02;;;9.30;99.90;;;;;;5091334;28;20205;-77
2021/05/04 06:29:55;;;;;;;0.77;0.77;;;9.50;99.90;;;;;;5078322;28;20220;-77
2021/05/04 06:32:25;;;;;;;0.85;0.80;;;9.60;99.90;;;;;;5070220;28;20210;-76
2021/05/04 06:34:55;;;;;;;0.60;0.60;;;9.60;99.90;;;;;;5070648;28;20221;-76
2021/05/04 06:37:21;;;;;;;1.00;0.90;;;9.70;99.90;;;;;;5071219;28;20231;-76
2021/05/04 06:39:47;;;;;;;0.60;0.55;;;9.80;99.90;;;;;;5071744;28;20193;-77
2021/05/04 06:42:13;;;;;;;0.60;0.55;;;9.80;99.90;;;;;;5070216;28;20565;-77
2021/05/04 06:44:40;;;;;;;1.23;1.13;;;9.80;99.90;;;;;;5079971;28;20213;-77
2021/05/04 06:47:07;;;;;;;0.80;0.80;;;9.80;99.90;;;;;;5091145;28;20667;-77
2021/05/04 06:49:33;;;;;;;1.58;1.48;;;9.70;99.90;;;;;;5091500;28;20201;-77
2021/05/04 06:52:00;;;;;;;1.35;1.25;;;9.60;99.90;;;;;;5088484;28;20620;-78
2021/05/04 06:54:26;;;;;;;1.20;1.10;;;9.60;99.90;;;;;;5086115;28;20221;-77
2021/05/04 06:56:53;;;;;;;1.27;1.20;;;9.60;99.90;;;;;;5091370;28;20579;-77
2021/05/04 06:59:19;;;;;;;1.75;1.17;;;9.70;99.90;;;;;;5091312;28;20202;-76
2021/05/04 07:01:45;;;;;;;4.60;1.30;;;9.70;99.90;;;;;;5090903;28;20189;-77
2021/05/04 07:04:14;;;;;;;0.80;0.55;;;9.70;99.90;;;;;;5091980;28;20219;-78
2021/05/04 07:06:41;;;;;;;3.35;1.13;;;9.60;99.90;;;;;;5090588;28;20201;-77
2021/05/04 07:09:07;;;;;;;1.63;1.42;;;9.70;99.90;;;;;;5090892;28;20563;-77
2021/05/04 07:11:33;;;;;;;0.93;0.80;;;9.60;99.90;;;;;;5091839;28;20578;-77
2021/05/04 07:14:02;;;;;;;0.60;0.60;;;9.70;99.90;;;;;;5089244;28;20213;-77
2021/05/04 07:16:28;;;;;;;0.75;0.60;;;9.70;99.90;;;;;;5094487;28;20530;-77
2021/05/04 07:18:54;;;;;;;0.88;0.88;;;9.70;99.90;;;;;;5090018;28;20205;-78
2021/05/04 07:21:22;;;;;;;0.60;0.50;;;9.60;99.90;;;;;;5095631;28;20193;-75
2021/05/04 07:23:48;;;;;;;1.08;0.93;;;9.70;99.90;;;;;;5096031;28;20210;-79
2021/05/04 07:26:15;;;;;;;0.95;0.85;;;9.70;99.90;;;;;;5096784;28;20200;-78
2021/05/04 07:28:41;;;;;;;1.33;0.80;;;9.70;99.90;;;;;;5096903;28;20340;-78
2021/05/04 07:31:08;;;;;;;0.60;0.60;;;9.60;99.90;;;;;;5095432;28;20560;-78
2021/05/04 07:33:34;;;;;;;1.05;0.95;;;9.50;99.90;;;;;;5095934;28;20225;-79
2021/05/04 07:36:00;;;;;;;2.58;1.30;;;9.40;99.90;;;;;;5095808;28;20194;-79
2021/05/04 07:38:28;;;;;;;0.60;0.60;;;9.30;99.90;;;;;;5095309;28;20566;-79
2021/05/04 07:40:54;;;;;;;2.95;1.88;;;9.30;99.90;;;;;;5094657;28;20201;-74
2021/05/04 07:43:22;;;;;;;0.85;0.85;;;9.30;99.90;;;;;;5091011;28;20679;-78
2021/05/04 07:45:48;;;;;;;3.70;1.20;;;9.30;99.90;;;;;;5093631;28;20280;-78
2021/05/04 07:48:16;;;;;;;1.00;0.70;;;9.40;99.90;;;;;;5094815;28;20193;-76
2021/05/04 07:50:42;;;;;;;5.95;0.80;;;9.30;99.90;;;;;;5094402;28;20627;-76
2021/05/04 07:53:09;;;;;;;2.50;2.28;;;9.40;99.90;;;;;;5094314;28;20212;-76
2021/05/04 07:55:36;;;;;;;0.52;0.47;;;9.50;99.90;;;;;;5094747;28;20216;-78
2021/05/04 07:58:02;;;;;;;1.63;1.05;;;9.60;99.90;;;;;;5094608;28;20189;-77
2021/05/04 08:00:29;;;;;;;1.17;1.08;;;9.80;99.90;;;;;;5094351;28;20232;-77
2021/05/04 08:02:56;;;;;;;2.08;0.77;;;10.00;99.90;;;;;;5077336;28;20202;-78
2021/05/04 08:05:22;;;;;;;0.60;0.55;;;10.00;99.90;;;;;;5073101;28;20214;-77
2021/05/04 08:07:48;;;;;;;1.30;0.93;;;10.10;99.90;;;;;;5073784;28;20191;-77
2021/05/04 08:10:15;;;;;;;1.02;0.90;;;10.00;99.90;;;;;;5074809;28;20218;-77
2021/05/04 08:12:42;;;;;;;0.55;0.52;;;9.90;99.90;;;;;;5073322;28;20203;-77
2021/05/04 08:15:14;;;;;;;1.40;1.30;;;9.80;99.90;;;;;;5087201;28;20205;-77
2021/05/04 08:17:42;;;;;;;1.35;0.80;;;9.70;99.90;;;;;;5093753;28;20196;-76
2021/05/04 08:20:09;;;;;;;0.95;0.85;;;9.60;99.90;;;;;;5094265;28;20279;-77
2021/05/04 08:22:36;;;;;;;2.67;1.88;;;9.50;99.90;;;;;;5093656;28;20196;-77
2021/05/04 08:25:04;;;;;;;14.20;2.50;;;9.40;99.90;;;;;;5093592;28;20594;-76
2021/05/04 08:27:30;;;;;;;1.80;1.15;;;9.40;99.90;;;;;;5093999;28;20193;-76
2021/05/04 08:29:57;;;;;;;0.70;0.63;;;9.30;99.90;;;;;;5093731;28;20209;-76
2021/05/04 08:32:24;;;;;;;4.15;1.13;;;9.20;99.90;;;;;;5092145;28;20201;-77
2021/05/04 08:34:50;;;;;;;1.52;0.75;;;9.30;99.90;;;;;;5093508;28;20337;-77
2021/05/04 08:37:17;;;;;;;0.80;0.80;;;9.40;99.90;;;;;;5093494;28;20202;-76
2021/05/04 08:39:43;;;;;;;2.45;1.15;;;9.60;99.90;;;;;;5093876;28;20221;-77
2021/05/04 08:42:10;;;;;;;1.25;0.75;;;9.80;99.90;;;;;;5093154;28;20350;-76
2021/05/04 08:44:41;;;;;;;2.38;1.58;;;9.90;99.90;;;;;;5087766;28;20205;-77
2021/05/04 08:47:09;;;;;;;1.02;0.60;;;10.00;99.90;;;;;;5093066;28;20202;-77
2021/05/04 08:49:38;;;;;;;1.50;1.40;;;10.10;99.90;;;;;;5093237;28;20202;-77
2021/05/04 08:52:05;;;;;;;2.40;1.02;;;10.10;99.90;;;;;;5092259;28;20214;-77
2021/05/04 08:54:31;;;;;;;2.25;1.02;;;10.20;99.90;;;;;;5092852;28;20234;-78
2021/05/04 08:56:58;;;;;;;1.25;1.05;;;10.30;99.90;;;;;;5093389;28;20544;-76
2021/05/04 08:59:24;;;;;;;1.35;0.70;;;10.40;99.90;;;;;;5093294;28;20219;-76
2021/05/04 09:01:50;;;;;;;6.72;1.55;;;10.40;99.90;;;;;;5092887;28;20219;-77
2021/05/04 09:04:30;;;;;;;2.17;1.25;;;10.50;99.90;;;;;;5092837;28;20210;-77
2021/05/04 09:07:11;;;;;;;4.10;0.80;;;10.60;99.90;;;;;;5093206;28;20198;-76
2021/05/04 09:09:59;;;;;;;2.30;1.20;;;10.60;99.90;;;;;;5094229;28;20518;-77
2021/05/04 09:12:32;;;;;;;6.70;0.85;;;10.60;99.90;;;;;;5092744;28;20216;-77
2021/05/04 09:15:05;;;;;;;0.73;0.73;;;10.80;99.90;;;;;;5078919;28;20205;-78
2021/05/04 09:17:34;;;;;;;1.50;0.90;;;10.80;99.90;;;;;;5093103;28;20210;-77
2021/05/04 09:20:08;;;;;;;2.85;1.58;;;10.80;99.90;;;;;;5092923;28;20194;-76
2021/05/04 09:22:38;;;;;;;0.85;0.80;;;10.60;99.90;;;;;;5093806;28;20197;-76
2021/05/04 09:25:06;;;;;;;0.95;0.85;;;10.20;99.90;;;;;;5092846;28;20206;-76
2021/05/04 09:27:33;;;;;;;1.17;1.08;;;9.90;99.90;;;;;;5093288;28;20212;-76
2021/05/04 09:30:01;;;;;;;0.93;0.82;;;9.80;99.90;;;;;;5092858;28;20202;-77
2021/05/04 09:32:31;;;;;;;1.05;0.95;;;9.90;99.90;;;;;;5091749;28;20197;-78
2021/05/04 09:35:00;;;;;;;0.60;0.60;;;9.90;99.90;;;;;;5091791;28;20210;-77
2021/05/04 09:37:33;;;;;;;0.50;0.40;;;9.90;99.90;;;;;;5091989;28;20278;-77
2021/05/04 09:40:33;;;;;;;1.77;1.30;;;10.10;99.90;;;;;;5091903;28;20229;-77
2021/05/04 09:43:11;;;;;;;1.20;1.10;;;10.10;99.90;;;;;;5090976;28;20197;-77
2021/05/04 09:45:40;;;;;;;1.50;0.80;;;10.20;99.90;;;;;;5088588;28;20543;-77
2021/05/04 09:48:18;;;;;;;0.98;0.73;;;10.20;99.90;;;;;;5091732;28;20611;-77
2021/05/04 09:50:50;;;;;;;4.00;1.77;;;10.30;99.90;;;;;;5091859;28;20213;-77
2021/05/04 09:53:22;;;;;;;1.08;0.98;;;10.80;99.90;;;;;;5091919;28;20531;-77
2021/05/04 09:55:55;;;;;;;0.73;0.70;;;11.30;99.90;;;;;;5091164;28;20691;-77
2021/05/04 09:58:35;;;;;;;1.08;1.08;;;11.40;99.90;;;;;;5091935;28;20199;-77
2021/05/04 10:01:04;;;;;;;0.75;0.50;;;11.70;99.90;;;;;;5091315;28;20191;-77
2021/05/04 10:03:30;;;;;;;3.20;2.95;;;11.90;99.90;;;;;;5091217;28;20210;-77
2021/05/04 10:06:01;;;;;;;3.08;1.30;;;11.80;99.90;;;;;;5091787;28;20615;-77
2021/05/04 10:08:31;;;;;;;0.80;0.70;;;11.60;99.90;;;;;;5092180;28;20216;-77
2021/05/04 10:10:59;;;;;;;1.63;1.27;;;11.40;99.90;;;;;;5091394;28;20208;-76
2021/05/04 10:13:28;;;;;;;1.48;0.60;;;11.20;99.90;;;;;;5087225;28;20205;-77
2021/05/04 10:15:56;;;;;;;0.70;0.60;;;11.30;99.90;;;;;;5090446;28;20218;-80
2021/05/04 10:18:23;;;;;;;0.60;0.60;;;11.70;99.90;;;;;;5091109;28;20222;-77
2021/05/04 10:20:53;;;;;;;0.70;0.50;;;12.00;99.90;;;;;;5091779;28;20207;-77
2021/05/04 10:23:20;;;;;;;0.90;0.80;;;11.90;99.90;;;;;;5090892;28;20675;-78
2021/05/04 10:25:51;;;;;;;1.50;1.30;;;12.20;99.90;;;;;;5092208;28;20652;-77
2021/05/04 10:28:18;;;;;;;3.95;0.80;;;12.80;99.90;;;;;;5091457;28;20205;-74
2021/05/04 10:30:45;;;;;;;8.52;1.48;;;12.90;99.90;;;;;;5091596;28;20626;-77
2021/05/04 10:33:27;;;;;;;2.55;1.80;;;12.70;99.90;;;;;;5090909;28;20189;-76
2021/05/04 10:35:54;;;;;;;1.35;0.60;;;12.50;99.90;;;;;;5091574;28;20181;-76
2021/05/04 10:38:21;;;;;;;2.97;1.05;;;12.40;99.90;;;;;;5092271;28;20284;-77
2021/05/04 10:40:58;;;;;;;0.50;0.40;;;12.40;99.90;;;;;;5091657;28;20268;-77
2021/05/04 10:43:39;;;;;;;1.15;1.05;;;12.30;99.90;;;;;;5087502;28;20680;-77
2021/05/04 10:46:09;;;;;;;5.45;1.55;;;11.40;99.90;;;;;;5094089;28;20534;-78
2021/05/04 10:48:46;;;;;;;0.90;0.90;;;10.30;99.90;;;;;;5095619;28;20227;-79
2021/05/04 10:51:14;;;;;;;1.05;0.55;;;9.90;99.90;;;;;;5095435;28;20218;-77
2021/05/04 10:54:04;;;;;;;2.85;1.75;;;9.90;99.90;;;;;;5095529;28;20606;-77
2021/05/04 10:56:36;;;;;;;0.80;0.68;;;10.40;99.90;;;;;;5095799;28;20218;-77
2021/05/04 10:59:03;;;;;;;0.60;0.40;;;10.70;99.90;;;;;;5095665;28;20203;-79
2021/05/04 11:01:30;;;;;;;2.42;0.95;;;11.00;99.90;;;;;;5095370;28;20643;-76
2021/05/04 11:03:57;;;;;;;0.50;0.40;;;11.00;99.90;;;;;;5095081;28;20222;-77
2021/05/04 11:06:49;;;;;;;1.30;1.10;;;11.00;99.90;;;;;;5095896;28;20278;-77
2021/05/04 11:09:17;;;;;;;1.45;0.60;;;11.10;99.90;;;;;;5095658;28;20216;-77
2021/05/04 11:11:50;;;;;;;1.35;1.00;;;11.10;99.90;;;;;;5094884;28;20238;-77
2021/05/04 11:14:37;;;;;;;1.40;1.05;;;11.20;99.90;;;;;;5089275;28;20224;-78
2021/05/04 11:17:09;;;;;;;6.15;0.70;;;11.30;99.90;;;;;;5086764;28;20195;-77
2021/05/04 11:19:39;;;;;;;0.60;0.60;;;11.50;99.90;;;;;;5095052;28;20200;-78
2021/05/04 11:22:16;;;;;;;0.50;0.40;;;11.90;99.90;;;;;;5095228;28;20194;-77
2021/05/04 11:24:45;;;;;;;2.17;1.98;;;12.60;99.90;;;;;;5094549;28;20258;-78
2021/05/04 11:27:25;;;;;;;2.45;2.28;;;12.80;99.90;;;;;;5095241;28;20691;-77
2021/05/04 11:29:53;;;;;;;1.02;0.95;;;12.80;99.90;;;;;;5095179;28;20589;-78
2021/05/04 11:32:27;;;;;;;0.98;0.70;;;13.20;99.90;;;;;;5095012;28;20221;-77
2021/05/04 11:34:56;;;;;;;11.00;1.33;;;13.40;99.90;;;;;;5094911;28;20250;-77
2021/05/04 11:37:44;;;;;;;0.50;0.50;;;13.50;99.90;;;;;;5095300;28;20197;-77
2021/05/04 11:40:18;;;;;;;0.70;0.70;;;13.60;99.90;;;;;;5095710;28;20211;-78
2021/05/04 11:42:48;;;;;;;0.50;0.40;;;13.40;99.90;;;;;;5095306;28;20192;-79
2021/05/04 11:45:15;;;;;;;0.50;0.50;;;13.20;99.90;;;;;;5089082;28;20221;-74
2021/05/04 11:47:43;;;;;;;2.35;0.88;;;12.90;99.90;;;;;;5094821;28;20195;-77
2021/05/04 11:50:13;;;;;;;2.35;0.68;;;12.70;99.90;;;;;;5094734;28;20200;-77
2021/05/04 11:52:44;;;;;;;0.82;0.80;;;12.50;99.90;;;;;;5095223;28;20257;-77
2021/05/04 11:55:18;;;;;;;3.15;2.15;;;12.30;99.90;;;;;;5094590;28;20217;-78
2021/05/04 11:57:48;;;;;;;1.23;0.70;;;12.20;99.90;;;;;;5094359;28;20241;-77
2021/05/04 12:00:23;;;;;;;0.70;0.60;;;12.20;99.90;;;;;;5094751;28;20208;-77
2021/05/04 12:02:50;;;;;;;2.05;0.80;;;12.40;99.90;;;;;;5094373;28;20192;-76
2021/05/04 12:05:25;;;;;;;1.45;0.68;;;12.60;99.90;;;;;;5095146;28;20212;-77
2021/05/04 12:07:52;;;;;;;0.50;0.40;;;12.90;99.90;;;;;;5094758;28;20200;-78
2021/05/04 12:10:33;;;;;;;0.70;0.60;;;13.30;99.90;;;;;;5094881;28;20193;-79
2021/05/04 12:13:03;;;;;;;1.73;0.63;;;13.50;99.90;;;;;;5092963;28;20745;-77
2021/05/04 12:15:30;;;;;;;0.60;0.50;;;13.90;99.90;;;;;;5089687;28;20297;-77
2021/05/04 12:18:08;;;;;;;1.25;0.60;;;14.30;99.90;;;;;;5094585;28;20638;-80
2021/05/04 12:20:37;;;;;;;0.77;0.70;;;14.10;99.90;;;;;;5094487;28;20224;-77
2021/05/04 12:23:06;;;;;;;0.70;0.70;;;14.00;99.90;;;;;;5093976;28;20202;-78
2021/05/04 12:25:52;;;;;;;1.30;0.70;;;14.20;99.90;;;;;;5093657;28;20462;-77
2021/05/04 12:28:22;;;;;;;0.50;0.40;;;14.00;99.90;;;;;;5093415;28;20174;-73
2021/05/04 12:30:51;;;;;;;1.70;1.60;;;13.80;99.90;;;;;;5093608;28;20239;-78
2021/05/04 12:33:19;;;;;;;0.60;0.50;;;13.70;99.90;;;;;;5093236;28;20318;-78
2021/05/04 12:35:53;;;;;;;3.63;0.63;;;13.30;99.90;;;;;;5093809;28;20905;-77
2021/05/04 12:38:23;;;;;;;0.80;0.80;;;12.60;99.90;;;;;;5093736;28;20191;-74
2021/05/04 12:41:00;;;;;;;2.78;1.00;;;11.80;99.90;;;;;;5093396;28;20257;-77
2021/05/04 12:43:29;;;;;;;0.52;0.50;;;11.20;99.90;;;;;;5088693;28;20274;-79
2021/05/04 12:46:10;;;;;;;0.63;0.63;;;11.00;99.90;;;;;;5092521;28;20289;-77
2021/05/04 12:48:38;;;;;;;3.42;1.45;;;10.90;99.90;;;;;;5093546;28;20196;-77
2021/05/04 12:51:07;;;;;;;0.50;0.40;;;11.10;99.90;;;;;;5093240;28;20234;-77
2021/05/04 12:53:36;;;;;;;2.70;0.98;;;11.40;99.90;;;;;;5093414;28;20224;-77
2021/05/04 12:56:05;;;;;;;0.50;0.47;;;11.80;99.90;;;;;;5093550;28;20194;-78
2021/05/04 12:58:33;;;;;;;1.25;0.65;;;12.00;99.90;;;;;;5092815;28;20211;-77